sensor_id;sensor_type;location;lat;lon;timestamp;P1;durP1;ratioP1;P2;durP2;ratioP2
40433;SDS011;26146;51.114;5.654;2023-06-22T00:03:12;7.72;;;3.80;;
40433;SDS011;26146;51.114;5.654;2023-06-22T00:07:13;8.43;;;4.00;;
40433;SDS011;26146;51.114;5.654;2023-06-22T00:11:14;7.88;;;3.72;;
40433;SDS011;26146;51.114;5.654;2023-06-22T00:15:15;8.57;;;4.00;;
40433;SDS011;26146;51.114;5.654;2023-06-22T00:19:16;8.75;;;4.30;;
40433;SDS011;26146;51.114;5.654;2023-06-22T00:23:19;9.60;;;4.32;;
40433;SDS011;26146;51.114;5.654;2023-06-22T00:27:20;9.23;;;4.40;;
40433;SDS011;26146;51.114;5.654;2023-06-22T00:31:21;10.65;;;4.75;;
40433;SDS011;26146;51.114;5.654;2023-06-22T00:35:22;13.95;;;4.00;;
40433;SDS011;26146;51.114;5.654;2023-06-22T00:39:23;8.38;;;4.20;;
40433;SDS011;26146;51.114;5.654;2023-06-22T00:43:24;8.48;;;4.15;;
40433;SDS011;26146;51.114;5.654;2023-06-22T00:47:25;9.45;;;4.30;;
40433;SDS011;26146;51.114;5.654;2023-06-22T00:51:27;10.50;;;4.30;;
40433;SDS011;26146;51.114;5.654;2023-06-22T00:55:29;8.65;;;4.60;;
40433;SDS011;26146;51.114;5.654;2023-06-22T00:59:30;9.77;;;4.72;;
40433;SDS011;26146;51.114;5.654;2023-06-22T01:03:32;9.20;;;4.40;;
40433;SDS011;26146;51.114;5.654;2023-06-22T01:07:39;9.55;;;4.80;;
40433;SDS011;26146;51.114;5.654;2023-06-22T01:11:50;9.25;;;4.78;;
40433;SDS011;26146;51.114;5.654;2023-06-22T01:16:15;10.98;;;5.00;;
40433;SDS011;26146;51.114;5.654;2023-06-22T01:20:24;10.23;;;5.43;;
40433;SDS011;26146;51.114;5.654;2023-06-22T01:24:32;10.10;;;5.20;;
40433;SDS011;26146;51.114;5.654;2023-06-22T01:28:49;10.90;;;5.30;;
40433;SDS011;26146;51.114;5.654;2023-06-22T01:32:53;12.13;;;5.38;;
40433;SDS011;26146;51.114;5.654;2023-06-22T01:36:55;11.30;;;5.85;;
40433;SDS011;26146;51.114;5.654;2023-06-22T01:40:58;10.57;;;5.68;;
40433;SDS011;26146;51.114;5.654;2023-06-22T01:44:59;12.07;;;5.90;;
40433;SDS011;26146;51.114;5.654;2023-06-22T01:49:02;11.20;;;6.10;;
40433;SDS011;26146;51.114;5.654;2023-06-22T01:53:04;11.45;;;6.80;;
40433;SDS011;26146;51.114;5.654;2023-06-22T01:57:07;13.23;;;6.53;;
40433;SDS011;26146;51.114;5.654;2023-06-22T02:01:10;11.93;;;6.90;;
40433;SDS011;26146;51.114;5.654;2023-06-22T02:05:12;12.30;;;6.97;;
40433;SDS011;26146;51.114;5.654;2023-06-22T02:09:18;14.75;;;7.65;;
40433;SDS011;26146;51.114;5.654;2023-06-22T02:13:23;15.73;;;8.05;;
40433;SDS011;26146;51.114;5.654;2023-06-22T02:17:26;13.93;;;8.55;;
40433;SDS011;26146;51.114;5.654;2023-06-22T02:21:27;15.35;;;9.25;;
40433;SDS011;26146;51.114;5.654;2023-06-22T02:25:28;13.50;;;8.63;;
40433;SDS011;26146;51.114;5.654;2023-06-22T02:29:29;16.15;;;9.32;;
40433;SDS011;26146;51.114;5.654;2023-06-22T02:33:30;15.52;;;10.00;;
40433;SDS011;26146;51.114;5.654;2023-06-22T02:37:31;15.07;;;9.45;;
40433;SDS011;26146;51.114;5.654;2023-06-22T02:41:32;15.80;;;9.85;;
40433;SDS011;26146;51.114;5.654;2023-06-22T02:45:33;17.48;;;10.35;;
40433;SDS011;26146;51.114;5.654;2023-06-22T02:49:34;15.30;;;9.98;;
40433;SDS011;26146;51.114;5.654;2023-06-22T02:53:35;17.13;;;10.52;;
40433;SDS011;26146;51.114;5.654;2023-06-22T02:57:37;17.27;;;10.38;;
40433;SDS011;26146;51.114;5.654;2023-06-22T03:01:38;17.77;;;10.88;;
40433;SDS011;26146;51.114;5.654;2023-06-22T03:05:40;17.23;;;10.85;;
40433;SDS011;26146;51.114;5.654;2023-06-22T03:09:41;17.60;;;11.13;;
40433;SDS011;26146;51.114;5.654;2023-06-22T03:13:42;19.00;;;11.43;;
40433;SDS011;26146;51.114;5.654;2023-06-22T03:17:44;18.00;;;11.63;;
40433;SDS011;26146;51.114;5.654;2023-06-22T03:21:45;17.67;;;11.88;;
40433;SDS011;26146;51.114;5.654;2023-06-22T03:25:46;18.70;;;11.75;;
40433;SDS011;26146;51.114;5.654;2023-06-22T03:29:47;19.13;;;12.48;;
40433;SDS011;26146;51.114;5.654;2023-06-22T03:33:49;19.17;;;12.23;;
40433;SDS011;26146;51.114;5.654;2023-06-22T03:37:50;19.73;;;12.57;;
40433;SDS011;26146;51.114;5.654;2023-06-22T03:41:51;20.02;;;12.98;;
40433;SDS011;26146;51.114;5.654;2023-06-22T03:45:52;20.25;;;12.80;;
40433;SDS011;26146;51.114;5.654;2023-06-22T03:49:53;20.90;;;12.90;;
40433;SDS011;26146;51.114;5.654;2023-06-22T03:53:55;21.20;;;13.13;;
40433;SDS011;26146;51.114;5.654;2023-06-22T03:57:56;18.70;;;12.80;;
40433;SDS011;26146;51.114;5.654;2023-06-22T04:01:57;20.27;;;12.63;;
40433;SDS011;26146;51.114;5.654;2023-06-22T04:05:58;19.33;;;12.25;;
40433;SDS011;26146;51.114;5.654;2023-06-22T04:09:59;20.88;;;12.90;;
40433;SDS011;26146;51.114;5.654;2023-06-22T04:14:00;19.83;;;12.60;;
40433;SDS011;26146;51.114;5.654;2023-06-22T04:18:01;19.92;;;13.18;;
40433;SDS011;26146;51.114;5.654;2023-06-22T04:22:02;22.75;;;13.25;;
40433;SDS011;26146;51.114;5.654;2023-06-22T04:26:03;18.73;;;12.82;;
40433;SDS011;26146;51.114;5.654;2023-06-22T04:30:04;21.35;;;13.20;;
40433;SDS011;26146;51.114;5.654;2023-06-22T04:34:07;18.65;;;12.45;;
40433;SDS011;26146;51.114;5.654;2023-06-22T04:38:09;18.63;;;12.50;;
40433;SDS011;26146;51.114;5.654;2023-06-22T04:42:16;20.98;;;13.13;;
40433;SDS011;26146;51.114;5.654;2023-06-22T04:46:17;20.55;;;13.60;;
40433;SDS011;26146;51.114;5.654;2023-06-22T04:50:18;20.73;;;13.18;;
40433;SDS011;26146;51.114;5.654;2023-06-22T04:54:21;19.70;;;13.45;;
40433;SDS011;26146;51.114;5.654;2023-06-22T04:58:22;19.38;;;13.07;;
40433;SDS011;26146;51.114;5.654;2023-06-22T05:02:23;22.48;;;13.57;;
40433;SDS011;26146;51.114;5.654;2023-06-22T05:10:28;20.13;;;12.85;;
40433;SDS011;26146;51.114;5.654;2023-06-22T05:14:29;19.33;;;12.52;;
40433;SDS011;26146;51.114;5.654;2023-06-22T05:18:30;19.50;;;13.07;;
40433;SDS011;26146;51.114;5.654;2023-06-22T05:22:32;19.33;;;12.93;;
40433;SDS011;26146;51.114;5.654;2023-06-22T05:26:33;16.25;;;9.00;;
40433;SDS011;26146;51.114;5.654;2023-06-22T05:30:35;17.50;;;10.23;;
40433;SDS011;26146;51.114;5.654;2023-06-22T05:34:36;18.05;;;10.00;;
40433;SDS011;26146;51.114;5.654;2023-06-22T05:38:37;15.23;;;8.98;;
40433;SDS011;26146;51.114;5.654;2023-06-22T05:42:38;15.45;;;10.90;;
40433;SDS011;26146;51.114;5.654;2023-06-22T05:46:40;17.55;;;9.20;;
40433;SDS011;26146;51.114;5.654;2023-06-22T05:50:44;15.65;;;9.38;;
40433;SDS011;26146;51.114;5.654;2023-06-22T05:54:45;17.10;;;10.50;;
40433;SDS011;26146;51.114;5.654;2023-06-22T05:58:46;18.83;;;11.63;;
40433;SDS011;26146;51.114;5.654;2023-06-22T06:02:47;17.67;;;11.82;;
40433;SDS011;26146;51.114;5.654;2023-06-22T06:06:49;18.35;;;12.60;;
40433;SDS011;26146;51.114;5.654;2023-06-22T06:10:50;19.67;;;13.80;;
40433;SDS011;26146;51.114;5.654;2023-06-22T06:14:53;21.67;;;13.95;;
40433;SDS011;26146;51.114;5.654;2023-06-22T06:18:55;16.75;;;11.10;;
40433;SDS011;26146;51.114;5.654;2023-06-22T06:22:56;17.23;;;11.25;;
40433;SDS011;26146;51.114;5.654;2023-06-22T06:26:57;18.70;;;10.95;;
40433;SDS011;26146;51.114;5.654;2023-06-22T06:30:58;20.20;;;11.95;;
40433;SDS011;26146;51.114;5.654;2023-06-22T06:34:59;21.55;;;13.75;;
40433;SDS011;26146;51.114;5.654;2023-06-22T06:39:00;21.83;;;13.82;;
40433;SDS011;26146;51.114;5.654;2023-06-22T06:43:03;23.90;;;14.75;;
40433;SDS011;26146;51.114;5.654;2023-06-22T06:47:04;22.83;;;15.55;;
40433;SDS011;26146;51.114;5.654;2023-06-22T06:51:05;21.98;;;16.10;;
40433;SDS011;26146;51.114;5.654;2023-06-22T06:55:09;24.67;;;15.98;;
40433;SDS011;26146;51.114;5.654;2023-06-22T06:59:12;25.38;;;17.75;;
40433;SDS011;26146;51.114;5.654;2023-06-22T07:03:12;25.98;;;17.20;;
40433;SDS011;26146;51.114;5.654;2023-06-22T07:07:13;25.02;;;17.85;;
40433;SDS011;26146;51.114;5.654;2023-06-22T07:11:14;24.95;;;18.33;;
40433;SDS011;26146;51.114;5.654;2023-06-22T07:15:15;25.02;;;18.48;;
40433;SDS011;26146;51.114;5.654;2023-06-22T07:19:16;28.35;;;18.52;;
40433;SDS011;26146;51.114;5.654;2023-06-22T07:23:28;29.50;;;19.20;;
40433;SDS011;26146;51.114;5.654;2023-06-22T07:27:29;30.15;;;20.38;;
40433;SDS011;26146;51.114;5.654;2023-06-22T07:31:35;28.33;;;20.23;;
40433;SDS011;26146;51.114;5.654;2023-06-22T07:35:36;26.75;;;19.30;;
40433;SDS011;26146;51.114;5.654;2023-06-22T07:39:37;28.95;;;19.52;;
40433;SDS011;26146;51.114;5.654;2023-06-22T07:43:38;25.23;;;17.95;;
40433;SDS011;26146;51.114;5.654;2023-06-22T07:47:39;26.63;;;18.15;;
40433;SDS011;26146;51.114;5.654;2023-06-22T07:51:42;26.77;;;18.75;;
40433;SDS011;26146;51.114;5.654;2023-06-22T07:55:43;23.13;;;17.50;;
40433;SDS011;26146;51.114;5.654;2023-06-22T07:59:44;27.05;;;17.50;;
40433;SDS011;26146;51.114;5.654;2023-06-22T08:03:45;26.48;;;17.95;;
40433;SDS011;26146;51.114;5.654;2023-06-22T08:07:50;22.95;;;17.42;;
40433;SDS011;26146;51.114;5.654;2023-06-22T08:11:51;24.02;;;16.92;;
40433;SDS011;26146;51.114;5.654;2023-06-22T08:15:52;24.10;;;16.75;;
40433;SDS011;26146;51.114;5.654;2023-06-22T08:19:52;24.17;;;16.33;;
40433;SDS011;26146;51.114;5.654;2023-06-22T08:23:53;21.90;;;15.68;;
40433;SDS011;26146;51.114;5.654;2023-06-22T08:27:54;24.83;;;16.40;;
40433;SDS011;26146;51.114;5.654;2023-06-22T08:31:55;22.85;;;16.05;;
40433;SDS011;26146;51.114;5.654;2023-06-22T08:35:57;22.70;;;15.43;;
40433;SDS011;26146;51.114;5.654;2023-06-22T08:39:59;23.65;;;15.68;;
40433;SDS011;26146;51.114;5.654;2023-06-22T08:44:01;22.05;;;15.30;;
40433;SDS011;26146;51.114;5.654;2023-06-22T08:48:03;21.35;;;14.40;;
40433;SDS011;26146;51.114;5.654;2023-06-22T08:52:04;21.63;;;14.90;;
40433;SDS011;26146;51.114;5.654;2023-06-22T08:56:05;22.95;;;15.05;;
40433;SDS011;26146;51.114;5.654;2023-06-22T09:00:07;21.02;;;15.07;;
40433;SDS011;26146;51.114;5.654;2023-06-22T09:04:20;21.20;;;13.70;;
40433;SDS011;26146;51.114;5.654;2023-06-22T09:08:23;22.17;;;14.38;;
40433;SDS011;26146;51.114;5.654;2023-06-22T09:12:25;19.42;;;13.60;;
40433;SDS011;26146;51.114;5.654;2023-06-22T09:16:27;20.33;;;13.70;;
40433;SDS011;26146;51.114;5.654;2023-06-22T09:20:28;21.88;;;13.73;;
40433;SDS011;26146;51.114;5.654;2023-06-22T09:24:29;19.90;;;13.75;;
40433;SDS011;26146;51.114;5.654;2023-06-22T09:28:30;22.13;;;14.00;;
40433;SDS011;26146;51.114;5.654;2023-06-22T09:32:31;21.50;;;13.30;;
40433;SDS011;26146;51.114;5.654;2023-06-22T09:36:32;20.48;;;13.05;;
40433;SDS011;26146;51.114;5.654;2023-06-22T09:40:33;19.15;;;13.05;;
40433;SDS011;26146;51.114;5.654;2023-06-22T09:44:40;19.95;;;12.88;;
40433;SDS011;26146;51.114;5.654;2023-06-22T09:48:41;20.48;;;13.18;;
40433;SDS011;26146;51.114;5.654;2023-06-22T09:52:42;19.15;;;12.63;;
40433;SDS011;26146;51.114;5.654;2023-06-22T09:56:45;19.70;;;12.70;;
40433;SDS011;26146;51.114;5.654;2023-06-22T10:00:45;21.42;;;13.00;;
40433;SDS011;26146;51.114;5.654;2023-06-22T10:04:46;19.20;;;13.05;;
40433;SDS011;26146;51.114;5.654;2023-06-22T10:08:47;18.67;;;12.73;;
40433;SDS011;26146;51.114;5.654;2023-06-22T10:12:56;20.38;;;13.02;;
40433;SDS011;26146;51.114;5.654;2023-06-22T10:17:02;20.20;;;13.63;;
40433;SDS011;26146;51.114;5.654;2023-06-22T10:21:04;19.27;;;13.38;;
40433;SDS011;26146;51.114;5.654;2023-06-22T10:25:05;21.10;;;14.27;;
40433;SDS011;26146;51.114;5.654;2023-06-22T10:29:06;21.90;;;15.63;;
40433;SDS011;26146;51.114;5.654;2023-06-22T10:33:08;23.05;;;16.40;;
40433;SDS011;26146;51.114;5.654;2023-06-22T10:37:09;23.77;;;17.15;;
40433;SDS011;26146;51.114;5.654;2023-06-22T10:41:10;30.55;;;18.50;;
40433;SDS011;26146;51.114;5.654;2023-06-22T10:45:12;27.02;;;17.73;;
40433;SDS011;26146;51.114;5.654;2023-06-22T10:49:14;29.55;;;19.02;;
40433;SDS011;26146;51.114;5.654;2023-06-22T10:53:15;30.08;;;20.63;;
40433;SDS011;26146;51.114;5.654;2023-06-22T10:57:16;33.33;;;22.23;;
40433;SDS011;26146;51.114;5.654;2023-06-22T11:01:17;33.35;;;22.80;;
40433;SDS011;26146;51.114;5.654;2023-06-22T11:05:18;35.53;;;25.35;;
40433;SDS011;26146;51.114;5.654;2023-06-22T11:09:19;36.67;;;25.23;;
40433;SDS011;26146;51.114;5.654;2023-06-22T11:13:23;40.58;;;26.58;;
40433;SDS011;26146;51.114;5.654;2023-06-22T11:17:25;44.25;;;27.52;;
40433;SDS011;26146;51.114;5.654;2023-06-22T11:21:26;36.15;;;26.73;;
40433;SDS011;26146;51.114;5.654;2023-06-22T11:25:27;40.50;;;27.88;;
40433;SDS011;26146;51.114;5.654;2023-06-22T11:29:29;42.40;;;28.95;;
40433;SDS011;26146;51.114;5.654;2023-06-22T11:33:31;40.42;;;27.17;;
40433;SDS011;26146;51.114;5.654;2023-06-22T11:37:32;37.75;;;27.08;;
40433;SDS011;26146;51.114;5.654;2023-06-22T11:41:33;44.25;;;28.85;;
40433;SDS011;26146;51.114;5.654;2023-06-22T11:45:34;42.38;;;29.85;;
40433;SDS011;26146;51.114;5.654;2023-06-22T11:49:36;41.45;;;29.60;;
40433;SDS011;26146;51.114;5.654;2023-06-22T11:53:37;42.13;;;28.05;;
40433;SDS011;26146;51.114;5.654;2023-06-22T11:57:38;40.78;;;27.40;;
40433;SDS011;26146;51.114;5.654;2023-06-22T12:01:52;36.97;;;26.42;;
40433;SDS011;26146;51.114;5.654;2023-06-22T12:05:54;39.28;;;27.13;;
40433;SDS011;26146;51.114;5.654;2023-06-22T12:09:55;39.00;;;27.63;;
40433;SDS011;26146;51.114;5.654;2023-06-22T12:13:56;40.65;;;28.35;;
40433;SDS011;26146;51.114;5.654;2023-06-22T12:18:02;40.90;;;27.98;;
40433;SDS011;26146;51.114;5.654;2023-06-22T12:22:03;41.90;;;28.05;;
40433;SDS011;26146;51.114;5.654;2023-06-22T12:26:04;39.00;;;28.48;;
40433;SDS011;26146;51.114;5.654;2023-06-22T12:30:05;40.70;;;28.92;;
40433;SDS011;26146;51.114;5.654;2023-06-22T12:34:06;38.13;;;27.58;;
40433;SDS011;26146;51.114;5.654;2023-06-22T12:38:08;38.15;;;27.25;;
40433;SDS011;26146;51.114;5.654;2023-06-22T12:42:09;42.58;;;27.95;;
40433;SDS011;26146;51.114;5.654;2023-06-22T12:46:12;38.70;;;27.25;;
40433;SDS011;26146;51.114;5.654;2023-06-22T12:50:13;34.42;;;25.00;;
40433;SDS011;26146;51.114;5.654;2023-06-22T12:54:14;32.88;;;24.05;;
40433;SDS011;26146;51.114;5.654;2023-06-22T12:58:15;29.48;;;21.45;;
40433;SDS011;26146;51.114;5.654;2023-06-22T13:02:17;29.63;;;21.30;;
40433;SDS011;26146;51.114;5.654;2023-06-22T13:06:18;30.90;;;21.05;;
40433;SDS011;26146;51.114;5.654;2023-06-22T13:10:18;30.45;;;20.42;;
40433;SDS011;26146;51.114;5.654;2023-06-22T13:14:19;28.00;;;19.73;;
40433;SDS011;26146;51.114;5.654;2023-06-22T13:18:20;25.80;;;18.85;;
40433;SDS011;26146;51.114;5.654;2023-06-22T13:22:28;26.30;;;19.23;;
40433;SDS011;26146;51.114;5.654;2023-06-22T13:26:43;25.85;;;19.10;;
40433;SDS011;26146;51.114;5.654;2023-06-22T13:30:44;28.77;;;20.17;;
40433;SDS011;26146;51.114;5.654;2023-06-22T13:34:47;28.50;;;20.40;;
40433;SDS011;26146;51.114;5.654;2023-06-22T13:38:48;29.15;;;20.65;;
40433;SDS011;26146;51.114;5.654;2023-06-22T13:42:49;29.70;;;20.80;;
40433;SDS011;26146;51.114;5.654;2023-06-22T13:46:50;30.27;;;20.98;;
40433;SDS011;26146;51.114;5.654;2023-06-22T13:50:52;32.65;;;22.67;;
40433;SDS011;26146;51.114;5.654;2023-06-22T13:54:53;32.88;;;22.90;;
40433;SDS011;26146;51.114;5.654;2023-06-22T13:58:54;34.20;;;24.10;;
40433;SDS011;26146;51.114;5.654;2023-06-22T14:02:55;35.17;;;23.88;;
40433;SDS011;26146;51.114;5.654;2023-06-22T14:06:56;36.58;;;25.50;;
40433;SDS011;26146;51.114;5.654;2023-06-22T14:10:56;40.55;;;26.13;;
40433;SDS011;26146;51.114;5.654;2023-06-22T14:14:57;40.75;;;27.20;;
40433;SDS011;26146;51.114;5.654;2023-06-22T14:18:58;40.78;;;28.02;;
40433;SDS011;26146;51.114;5.654;2023-06-22T14:22:59;44.75;;;29.08;;
40433;SDS011;26146;51.114;5.654;2023-06-22T14:27:00;45.60;;;30.23;;
40433;SDS011;26146;51.114;5.654;2023-06-22T14:31:03;48.20;;;32.30;;
40433;SDS011;26146;51.114;5.654;2023-06-22T14:35:04;50.65;;;32.72;;
40433;SDS011;26146;51.114;5.654;2023-06-22T14:39:05;50.33;;;34.03;;
40433;SDS011;26146;51.114;5.654;2023-06-22T14:43:06;56.75;;;36.58;;
40433;SDS011;26146;51.114;5.654;2023-06-22T14:47:07;57.78;;;37.33;;
40433;SDS011;26146;51.114;5.654;2023-06-22T14:51:08;62.00;;;39.05;;
40433;SDS011;26146;51.114;5.654;2023-06-22T14:55:10;57.25;;;38.22;;
40433;SDS011;26146;51.114;5.654;2023-06-22T14:59:12;54.20;;;38.20;;
40433;SDS011;26146;51.114;5.654;2023-06-22T15:03:13;54.25;;;40.13;;
40433;SDS011;26146;51.114;5.654;2023-06-22T15:11:19;52.72;;;37.75;;
40433;SDS011;26146;51.114;5.654;2023-06-22T15:15:20;49.78;;;35.67;;
40433;SDS011;26146;51.114;5.654;2023-06-22T15:19:21;54.25;;;37.30;;
40433;SDS011;26146;51.114;5.654;2023-06-22T15:23:22;56.20;;;37.72;;
40433;SDS011;26146;51.114;5.654;2023-06-22T15:27:24;49.17;;;35.55;;
40433;SDS011;26146;51.114;5.654;2023-06-22T15:31:26;50.03;;;34.47;;
40433;SDS011;26146;51.114;5.654;2023-06-22T15:35:27;52.33;;;35.50;;
40433;SDS011;26146;51.114;5.654;2023-06-22T15:39:28;49.17;;;33.55;;
40433;SDS011;26146;51.114;5.654;2023-06-22T15:43:29;46.47;;;32.03;;
40433;SDS011;26146;51.114;5.654;2023-06-22T15:47:30;45.85;;;31.73;;
40433;SDS011;26146;51.114;5.654;2023-06-22T15:51:31;49.38;;;32.83;;
40433;SDS011;26146;51.114;5.654;2023-06-22T15:55:37;52.10;;;32.70;;
40433;SDS011;26146;51.114;5.654;2023-06-22T15:59:39;49.38;;;33.00;;
40433;SDS011;26146;51.114;5.654;2023-06-22T16:03:40;48.13;;;32.05;;
40433;SDS011;26146;51.114;5.654;2023-06-22T16:07:41;48.33;;;31.48;;
40433;SDS011;26146;51.114;5.654;2023-06-22T16:11:43;47.58;;;31.17;;
40433;SDS011;26146;51.114;5.654;2023-06-22T16:15:44;46.65;;;30.73;;
40433;SDS011;26146;51.114;5.654;2023-06-22T16:19:45;53.95;;;34.35;;
40433;SDS011;26146;51.114;5.654;2023-06-22T16:23:46;46.83;;;31.55;;
40433;SDS011;26146;51.114;5.654;2023-06-22T16:27:47;45.63;;;31.42;;
40433;SDS011;26146;51.114;5.654;2023-06-22T16:31:48;44.03;;;30.15;;
40433;SDS011;26146;51.114;5.654;2023-06-22T16:35:49;47.92;;;30.95;;
40433;SDS011;26146;51.114;5.654;2023-06-22T16:39:50;43.50;;;30.52;;
40433;SDS011;26146;51.114;5.654;2023-06-22T16:43:51;47.58;;;31.00;;
40433;SDS011;26146;51.114;5.654;2023-06-22T16:47:52;48.85;;;31.48;;
40433;SDS011;26146;51.114;5.654;2023-06-22T16:51:53;42.70;;;29.33;;
40433;SDS011;26146;51.114;5.654;2023-06-22T16:55:54;41.67;;;27.73;;
40433;SDS011;26146;51.114;5.654;2023-06-22T16:59:55;43.03;;;28.85;;
40433;SDS011;26146;51.114;5.654;2023-06-22T17:04:01;45.63;;;29.67;;
40433;SDS011;26146;51.114;5.654;2023-06-22T17:08:06;39.33;;;25.40;;
40433;SDS011;26146;51.114;5.654;2023-06-22T17:12:12;31.92;;;20.17;;
40433;SDS011;26146;51.114;5.654;2023-06-22T17:16:32;28.08;;;18.90;;
40433;SDS011;26146;51.114;5.654;2023-06-22T17:20:54;29.75;;;18.60;;
40433;SDS011;26146;51.114;5.654;2023-06-22T17:24:55;28.45;;;19.23;;
40433;SDS011;26146;51.114;5.654;2023-06-22T17:28:56;31.48;;;20.98;;
40433;SDS011;26146;51.114;5.654;2023-06-22T17:33:01;33.17;;;22.02;;
40433;SDS011;26146;51.114;5.654;2023-06-22T17:37:03;35.30;;;23.05;;
40433;SDS011;26146;51.114;5.654;2023-06-22T17:41:04;35.58;;;24.48;;
40433;SDS011;26146;51.114;5.654;2023-06-22T17:45:05;36.42;;;25.77;;
40433;SDS011;26146;51.114;5.654;2023-06-22T17:49:27;44.38;;;28.75;;
40433;SDS011;26146;51.114;5.654;2023-06-22T17:53:29;46.30;;;29.42;;
40433;SDS011;26146;51.114;5.654;2023-06-22T17:57:35;43.95;;;29.85;;
40433;SDS011;26146;51.114;5.654;2023-06-22T18:01:37;48.85;;;31.20;;
40433;SDS011;26146;51.114;5.654;2023-06-22T18:05:39;46.25;;;30.13;;
40433;SDS011;26146;51.114;5.654;2023-06-22T18:09:46;47.15;;;30.42;;
40433;SDS011;26146;51.114;5.654;2023-06-22T18:13:48;44.22;;;30.88;;
40433;SDS011;26146;51.114;5.654;2023-06-22T18:17:50;52.30;;;33.40;;
40433;SDS011;26146;51.114;5.654;2023-06-22T18:21:52;49.80;;;32.90;;
40433;SDS011;26146;51.114;5.654;2023-06-22T18:25:53;49.17;;;32.88;;
40433;SDS011;26146;51.114;5.654;2023-06-22T18:29:55;52.30;;;33.80;;
40433;SDS011;26146;51.114;5.654;2023-06-22T18:33:56;50.38;;;34.38;;
40433;SDS011;26146;51.114;5.654;2023-06-22T18:37:58;53.85;;;35.75;;
40433;SDS011;26146;51.114;5.654;2023-06-22T18:42:00;51.60;;;36.17;;
40433;SDS011;26146;51.114;5.654;2023-06-22T18:50:45;50.45;;;34.22;;
40433;SDS011;26146;51.114;5.654;2023-06-22T18:54:47;50.45;;;33.22;;
40433;SDS011;26146;51.114;5.654;2023-06-22T18:58:56;47.60;;;32.20;;
40433;SDS011;26146;51.114;5.654;2023-06-22T19:02:57;43.70;;;30.13;;
40433;SDS011;26146;51.114;5.654;2023-06-22T19:06:59;45.42;;;29.83;;
40433;SDS011;26146;51.114;5.654;2023-06-22T19:11:10;43.00;;;28.88;;
40433;SDS011;26146;51.114;5.654;2023-06-22T19:15:13;44.88;;;28.65;;
40433;SDS011;26146;51.114;5.654;2023-06-22T19:19:15;40.30;;;28.20;;
40433;SDS011;26146;51.114;5.654;2023-06-22T19:23:23;41.80;;;28.50;;
40433;SDS011;26146;51.114;5.654;2023-06-22T19:27:29;41.70;;;27.52;;
40433;SDS011;26146;51.114;5.654;2023-06-22T19:31:30;44.42;;;28.00;;
40433;SDS011;26146;51.114;5.654;2023-06-22T19:35:32;43.72;;;27.50;;
40433;SDS011;26146;51.114;5.654;2023-06-22T19:39:34;41.78;;;27.10;;
40433;SDS011;26146;51.114;5.654;2023-06-22T19:43:36;42.88;;;28.02;;
40433;SDS011;26146;51.114;5.654;2023-06-22T19:47:39;44.88;;;28.13;;
40433;SDS011;26146;51.114;5.654;2023-06-22T19:51:40;40.90;;;27.15;;
40433;SDS011;26146;51.114;5.654;2023-06-22T19:55:59;43.90;;;28.10;;
40433;SDS011;26146;51.114;5.654;2023-06-22T20:00:02;43.58;;;27.95;;
40433;SDS011;26146;51.114;5.654;2023-06-22T20:04:08;42.50;;;27.38;;
40433;SDS011;26146;51.114;5.654;2023-06-22T20:08:10;41.40;;;27.65;;
40433;SDS011;26146;51.114;5.654;2023-06-22T20:12:22;40.85;;;26.88;;
40433;SDS011;26146;51.114;5.654;2023-06-22T20:16:25;38.22;;;25.50;;
40433;SDS011;26146;51.114;5.654;2023-06-22T20:20:29;38.10;;;25.90;;
40433;SDS011;26146;51.114;5.654;2023-06-22T20:24:34;32.20;;;22.00;;
40433;SDS011;26146;51.114;5.654;2023-06-22T20:28:38;35.10;;;22.67;;
40433;SDS011;26146;51.114;5.654;2023-06-22T20:32:49;31.25;;;21.13;;
40433;SDS011;26146;51.114;5.654;2023-06-22T20:36:51;29.23;;;19.20;;
40433;SDS011;26146;51.114;5.654;2023-06-22T20:40:52;28.13;;;18.35;;
40433;SDS011;26146;51.114;5.654;2023-06-22T20:44:54;27.27;;;18.67;;
40433;SDS011;26146;51.114;5.654;2023-06-22T20:48:55;27.13;;;18.40;;
40433;SDS011;26146;51.114;5.654;2023-06-22T20:52:59;26.60;;;17.35;;
40433;SDS011;26146;51.114;5.654;2023-06-22T20:57:01;28.83;;;18.20;;
40433;SDS011;26146;51.114;5.654;2023-06-22T21:01:02;29.42;;;18.80;;
40433;SDS011;26146;51.114;5.654;2023-06-22T21:05:03;31.38;;;19.50;;
40433;SDS011;26146;51.114;5.654;2023-06-22T21:09:04;29.23;;;19.75;;
40433;SDS011;26146;51.114;5.654;2023-06-22T21:13:05;30.58;;;20.20;;
40433;SDS011;26146;51.114;5.654;2023-06-22T21:17:06;27.60;;;18.58;;
40433;SDS011;26146;51.114;5.654;2023-06-22T21:21:07;29.20;;;18.38;;
40433;SDS011;26146;51.114;5.654;2023-06-22T21:25:09;25.13;;;17.55;;
40433;SDS011;26146;51.114;5.654;2023-06-22T21:29:11;27.70;;;18.58;;
40433;SDS011;26146;51.114;5.654;2023-06-22T21:33:12;27.48;;;18.30;;
40433;SDS011;26146;51.114;5.654;2023-06-22T21:37:13;28.40;;;19.15;;
40433;SDS011;26146;51.114;5.654;2023-06-22T21:41:14;27.17;;;18.58;;
40433;SDS011;26146;51.114;5.654;2023-06-22T21:45:15;30.08;;;20.13;;
40433;SDS011;26146;51.114;5.654;2023-06-22T21:49:16;31.88;;;20.25;;
40433;SDS011;26146;51.114;5.654;2023-06-22T21:53:17;33.03;;;21.27;;
40433;SDS011;26146;51.114;5.654;2023-06-22T21:57:18;30.73;;;21.33;;
40433;SDS011;26146;51.114;5.654;2023-06-22T22:01:25;32.85;;;22.30;;
40433;SDS011;26146;51.114;5.654;2023-06-22T22:05:26;32.67;;;21.73;;
40433;SDS011;26146;51.114;5.654;2023-06-22T22:09:28;36.78;;;24.13;;
40433;SDS011;26146;51.114;5.654;2023-06-22T22:13:29;37.72;;;24.42;;
40433;SDS011;26146;51.114;5.654;2023-06-22T22:17:32;37.22;;;24.23;;
40433;SDS011;26146;51.114;5.654;2023-06-22T22:21:35;37.33;;;24.05;;
40433;SDS011;26146;51.114;5.654;2023-06-22T22:25:36;40.63;;;24.90;;
40433;SDS011;26146;51.114;5.654;2023-06-22T22:29:37;37.95;;;24.58;;
40433;SDS011;26146;51.114;5.654;2023-06-22T22:33:40;40.30;;;24.23;;
40433;SDS011;26146;51.114;5.654;2023-06-22T22:37:42;36.10;;;23.42;;
40433;SDS011;26146;51.114;5.654;2023-06-22T22:41:43;36.47;;;23.80;;
40433;SDS011;26146;51.114;5.654;2023-06-22T22:45:44;37.40;;;23.83;;
40433;SDS011;26146;51.114;5.654;2023-06-22T22:49:45;37.38;;;23.02;;
40433;SDS011;26146;51.114;5.654;2023-06-22T22:53:46;36.90;;;23.45;;
40433;SDS011;26146;51.114;5.654;2023-06-22T22:57:47;37.67;;;23.60;;
40433;SDS011;26146;51.114;5.654;2023-06-22T23:01:49;37.25;;;23.25;;
40433;SDS011;26146;51.114;5.654;2023-06-22T23:05:50;34.08;;;22.45;;
40433;SDS011;26146;51.114;5.654;2023-06-22T23:09:52;36.83;;;22.98;;
40433;SDS011;26146;51.114;5.654;2023-06-22T23:13:56;37.28;;;23.35;;
40433;SDS011;26146;51.114;5.654;2023-06-22T23:17:57;32.23;;;21.13;;
40433;SDS011;26146;51.114;5.654;2023-06-22T23:21:58;33.67;;;21.75;;
40433;SDS011;26146;51.114;5.654;2023-06-22T23:26:00;34.63;;;21.08;;
40433;SDS011;26146;51.114;5.654;2023-06-22T23:30:04;32.92;;;20.30;;
40433;SDS011;26146;51.114;5.654;2023-06-22T23:34:09;32.22;;;19.45;;
40433;SDS011;26146;51.114;5.654;2023-06-22T23:38:10;32.17;;;18.80;;
40433;SDS011;26146;51.114;5.654;2023-06-22T23:42:11;29.45;;;18.83;;
40433;SDS011;26146;51.114;5.654;2023-06-22T23:46:14;30.13;;;18.55;;
40433;SDS011;26146;51.114;5.654;2023-06-22T23:50:15;29.92;;;17.70;;
40433;SDS011;26146;51.114;5.654;2023-06-22T23:54:18;28.02;;;16.90;;